sensor_id;sensor_type;location;lat;lon;timestamp;pressure;altitude;pressure_sealevel;temperature;humidity
49729;BME280;66333;49.798;10.968;2023-11-19T00:01:43;98064.28;;;10.34;55.78
49729;BME280;66333;49.798;10.968;2023-11-19T00:04:09;98066.88;;;10.26;54.65
49729;BME280;66333;49.798;10.968;2023-11-19T00:06:38;98062.13;;;10.29;54.73
49729;BME280;66333;49.798;10.968;2023-11-19T00:09:05;98045.41;;;10.22;54.58
49729;BME280;66333;49.798;10.968;2023-11-19T00:11:33;98043.00;;;10.29;54.54
49729;BME280;66333;49.798;10.968;2023-11-19T00:13:59;98042.00;;;10.30;54.96
49729;BME280;66333;49.798;10.968;2023-11-19T00:16:26;98040.97;;;10.23;54.64
49729;BME280;66333;49.798;10.968;2023-11-19T00:18:53;98047.25;;;10.30;55.50
49729;BME280;66333;49.798;10.968;2023-11-19T00:21:19;98052.16;;;10.33;55.93
49729;BME280;66333;49.798;10.968;2023-11-19T00:23:48;98047.25;;;10.30;55.23
49729;BME280;66333;49.798;10.968;2023-11-19T00:26:14;98040.88;;;10.32;55.84
49729;BME280;66333;49.798;10.968;2023-11-19T00:28:41;98049.19;;;10.28;56.13
49729;BME280;66333;49.798;10.968;2023-11-19T00:31:09;98052.81;;;10.27;55.92
49729;BME280;66333;49.798;10.968;2023-11-19T00:33:35;98057.06;;;10.28;56.13
49729;BME280;66333;49.798;10.968;2023-11-19T00:36:03;98038.94;;;10.34;56.21
49729;BME280;66333;49.798;10.968;2023-11-19T00:38:29;98023.22;;;10.34;56.39
49729;BME280;66333;49.798;10.968;2023-11-19T00:40:57;98024.69;;;10.37;55.81
49729;BME280;66333;49.798;10.968;2023-11-19T00:43:27;98025.69;;;10.36;55.59
49729;BME280;66333;49.798;10.968;2023-11-19T00:45:54;98020.13;;;10.39;55.63
49729;BME280;66333;49.798;10.968;2023-11-19T00:48:20;98004.41;;;10.39;54.85
49729;BME280;66333;49.798;10.968;2023-11-19T00:50:47;97999.78;;;10.33;54.68
49729;BME280;66333;49.798;10.968;2023-11-19T00:53:14;97986.00;;;10.23;54.56
49729;BME280;66333;49.798;10.968;2023-11-19T00:55:41;97994.53;;;10.33;55.69
49729;BME280;66333;49.798;10.968;2023-11-19T00:58:08;97977.19;;;10.32;55.08
49729;BME280;66333;49.798;10.968;2023-11-19T01:00:35;97986.34;;;10.28;54.71
49729;BME280;66333;49.798;10.968;2023-11-19T01:03:01;97983.78;;;10.36;55.79
49729;BME280;66333;49.798;10.968;2023-11-19T01:05:28;97990.44;;;10.30;55.10
49729;BME280;66333;49.798;10.968;2023-11-19T01:07:55;98004.31;;;10.23;54.83
49729;BME280;66333;49.798;10.968;2023-11-19T01:10:21;98000.47;;;10.35;55.09
49729;BME280;66333;49.798;10.968;2023-11-19T01:12:48;98006.38;;;10.37;55.06
49729;BME280;66333;49.798;10.968;2023-11-19T01:15:18;98011.06;;;10.33;56.12
49729;BME280;66333;49.798;10.968;2023-11-19T01:17:44;98012.22;;;10.31;55.98
49729;BME280;66333;49.798;10.968;2023-11-19T01:20:11;98005.53;;;10.36;56.03
49729;BME280;66333;49.798;10.968;2023-11-19T01:22:38;98001.13;;;10.37;56.09
49729;BME280;66333;49.798;10.968;2023-11-19T01:25:05;97992.75;;;10.33;56.37
49729;BME280;66333;49.798;10.968;2023-11-19T01:27:32;97993.91;;;10.39;55.77
49729;BME280;66333;49.798;10.968;2023-11-19T01:30:00;98011.91;;;10.34;56.32
49729;BME280;66333;49.798;10.968;2023-11-19T01:32:30;97998.81;;;10.34;56.56
49729;BME280;66333;49.798;10.968;2023-11-19T01:34:56;98005.34;;;10.30;56.74
49729;BME280;66333;49.798;10.968;2023-11-19T01:37:23;98000.16;;;10.38;56.40
49729;BME280;66333;49.798;10.968;2023-11-19T01:39:49;97997.03;;;10.34;56.65
49729;BME280;66333;49.798;10.968;2023-11-19T01:42:16;97995.19;;;10.27;56.80
49729;BME280;66333;49.798;10.968;2023-11-19T01:44:42;97987.06;;;10.38;56.55
49729;BME280;66333;49.798;10.968;2023-11-19T01:47:09;97968.38;;;10.41;56.44
49729;BME280;66333;49.798;10.968;2023-11-19T01:49:37;97966.06;;;10.30;56.72
49729;BME280;66333;49.798;10.968;2023-11-19T01:52:05;97970.00;;;10.34;56.68
49729;BME280;66333;49.798;10.968;2023-11-19T01:54:31;97963.97;;;10.41;56.26
49729;BME280;66333;49.798;10.968;2023-11-19T01:57:00;97953.97;;;10.37;56.59
49729;BME280;66333;49.798;10.968;2023-11-19T01:59:27;97949.06;;;10.42;56.36
49729;BME280;66333;49.798;10.968;2023-11-19T02:01:54;97944.69;;;10.42;56.33
49729;BME280;66333;49.798;10.968;2023-11-19T02:04:22;97957.88;;;10.33;56.82
49729;BME280;66333;49.798;10.968;2023-11-19T02:06:54;97950.72;;;10.35;56.93
49729;BME280;66333;49.798;10.968;2023-11-19T02:09:22;97947.41;;;10.33;56.83
49729;BME280;66333;49.798;10.968;2023-11-19T02:11:49;97943.97;;;10.32;56.86
49729;BME280;66333;49.798;10.968;2023-11-19T02:14:18;97937.63;;;10.35;56.76
49729;BME280;66333;49.798;10.968;2023-11-19T02:16:45;97941.53;;;10.39;56.59
49729;BME280;66333;49.798;10.968;2023-11-19T02:19:11;97947.09;;;10.36;56.80
49729;BME280;66333;49.798;10.968;2023-11-19T02:21:38;97947.72;;;10.30;56.90
49729;BME280;66333;49.798;10.968;2023-11-19T02:24:10;97950.06;;;10.41;56.67
49729;BME280;66333;49.798;10.968;2023-11-19T02:26:39;97940.91;;;10.45;56.49
49729;BME280;66333;49.798;10.968;2023-11-19T02:29:12;97936.34;;;10.47;56.32
49729;BME280;66333;49.798;10.968;2023-11-19T02:31:38;97931.41;;;10.44;56.43
49729;BME280;66333;49.798;10.968;2023-11-19T02:34:05;97926.66;;;10.39;56.71
49729;BME280;66333;49.798;10.968;2023-11-19T02:36:32;97941.88;;;10.36;56.76
49729;BME280;66333;49.798;10.968;2023-11-19T02:38:58;97936.63;;;10.36;56.87
49729;BME280;66333;49.798;10.968;2023-11-19T02:41:26;97936.63;;;10.36;56.83
49729;BME280;66333;49.798;10.968;2023-11-19T02:43:52;97934.31;;;10.33;56.90
49729;BME280;66333;49.798;10.968;2023-11-19T02:46:20;97931.06;;;10.39;56.82
49729;BME280;66333;49.798;10.968;2023-11-19T02:48:47;97926.16;;;10.36;56.87
49729;BME280;66333;49.798;10.968;2023-11-19T02:51:14;97917.31;;;10.37;56.90
49729;BME280;66333;49.798;10.968;2023-11-19T02:53:40;97908.16;;;10.41;56.78
49729;BME280;66333;49.798;10.968;2023-11-19T02:56:09;97902.59;;;10.44;56.67
49729;BME280;66333;49.798;10.968;2023-11-19T02:58:44;97899.97;;;10.36;56.83
49729;BME280;66333;49.798;10.968;2023-11-19T03:01:11;97883.75;;;10.32;57.08
49729;BME280;66333;49.798;10.968;2023-11-19T03:03:49;97871.81;;;10.38;56.93
49729;BME280;66333;49.798;10.968;2023-11-19T03:06:19;97862.34;;;10.45;55.80
49729;BME280;66333;49.798;10.968;2023-11-19T03:08:47;97857.09;;;10.45;56.32
49729;BME280;66333;49.798;10.968;2023-11-19T03:11:13;97849.72;;;10.40;56.67
49729;BME280;66333;49.798;10.968;2023-11-19T03:13:40;97829.56;;;10.41;56.80
49729;BME280;66333;49.798;10.968;2023-11-19T03:16:07;97822.22;;;10.36;56.82
49729;BME280;66333;49.798;10.968;2023-11-19T03:18:34;97813.38;;;10.37;56.86
49729;BME280;66333;49.798;10.968;2023-11-19T03:21:02;97814.69;;;10.41;56.48
49729;BME280;66333;49.798;10.968;2023-11-19T03:23:29;97820.44;;;10.45;56.37
49729;BME280;66333;49.798;10.968;2023-11-19T03:25:56;97815.50;;;10.42;56.78
49729;BME280;66333;49.798;10.968;2023-11-19T03:28:23;97810.94;;;10.36;56.89
49729;BME280;66333;49.798;10.968;2023-11-19T03:30:50;97807.81;;;10.40;56.64
49729;BME280;66333;49.798;10.968;2023-11-19T03:33:18;97803.06;;;10.44;56.57
49729;BME280;66333;49.798;10.968;2023-11-19T03:35:44;97798.66;;;10.44;56.61
49729;BME280;66333;49.798;10.968;2023-11-19T03:38:12;97793.91;;;10.48;56.53
49729;BME280;66333;49.798;10.968;2023-11-19T03:40:41;97793.59;;;10.43;56.73
49729;BME280;66333;49.798;10.968;2023-11-19T03:43:07;97796.50;;;10.40;56.78
49729;BME280;66333;49.798;10.968;2023-11-19T03:45:34;97781.13;;;10.45;56.59
49729;BME280;66333;49.798;10.968;2023-11-19T03:48:01;97777.19;;;10.41;56.71
49729;BME280;66333;49.798;10.968;2023-11-19T03:50:28;97779.69;;;10.42;56.79
49729;BME280;66333;49.798;10.968;2023-11-19T03:52:54;97776.72;;;10.37;56.94
49729;BME280;66333;49.798;10.968;2023-11-19T03:55:22;97781.44;;;10.42;56.91
49729;BME280;66333;49.798;10.968;2023-11-19T03:57:48;97789.31;;;10.42;56.93
49729;BME280;66333;49.798;10.968;2023-11-19T04:00:15;97792.25;;;10.39;57.05
49729;BME280;66333;49.798;10.968;2023-11-19T04:02:42;97786.03;;;10.40;56.95
49729;BME280;66333;49.798;10.968;2023-11-19T04:05:09;97789.97;;;10.36;57.05
49729;BME280;66333;49.798;10.968;2023-11-19T04:07:36;97803.72;;;10.38;57.06
49729;BME280;66333;49.798;10.968;2023-11-19T04:10:03;97804.53;;;10.38;57.10
49729;BME280;66333;49.798;10.968;2023-11-19T04:12:31;97798.16;;;10.41;57.04
49729;BME280;66333;49.798;10.968;2023-11-19T04:14:58;97802.41;;;10.50;56.45
49729;BME280;66333;49.798;10.968;2023-11-19T04:17:25;97800.78;;;10.49;56.42
49729;BME280;66333;49.798;10.968;2023-11-19T04:19:51;97783.41;;;10.48;56.80
49729;BME280;66333;49.798;10.968;2023-11-19T04:22:18;97786.53;;;10.43;56.93
49729;BME280;66333;49.798;10.968;2023-11-19T04:24:45;97796.03;;;10.36;57.20
49729;BME280;66333;49.798;10.968;2023-11-19T04:27:11;97803.25;;;10.34;57.23
49729;BME280;66333;49.798;10.968;2023-11-19T04:29:39;97810.09;;;10.35;57.19
49729;BME280;66333;49.798;10.968;2023-11-19T04:32:06;97801.75;;;10.40;57.22
49729;BME280;66333;49.798;10.968;2023-11-19T04:34:34;97785.38;;;10.46;56.98
49729;BME280;66333;49.798;10.968;2023-11-19T04:37:03;97783.13;;;10.51;56.77
49729;BME280;66333;49.798;10.968;2023-11-19T04:39:31;97786.38;;;10.37;57.06
49729;BME280;66333;49.798;10.968;2023-11-19T04:41:57;97784.41;;;10.39;57.19
49729;BME280;66333;49.798;10.968;2023-11-19T04:44:24;97789.16;;;10.43;57.00
49729;BME280;66333;49.798;10.968;2023-11-19T04:46:52;97785.38;;;10.46;56.98
49729;BME280;66333;49.798;10.968;2023-11-19T04:49:18;97788.66;;;10.40;57.15
49729;BME280;66333;49.798;10.968;2023-11-19T04:51:46;97788.66;;;10.40;57.19
49729;BME280;66333;49.798;10.968;2023-11-19T04:54:13;97785.22;;;10.39;57.19
49729;BME280;66333;49.798;10.968;2023-11-19T04:56:40;97784.06;;;10.42;57.17
49729;BME280;66333;49.798;10.968;2023-11-19T04:59:06;97777.19;;;10.41;57.08
49729;BME280;66333;49.798;10.968;2023-11-19T05:01:34;97773.94;;;10.39;57.18
49729;BME280;66333;49.798;10.968;2023-11-19T05:04:02;97757.88;;;10.42;57.15
49729;BME280;66333;49.798;10.968;2023-11-19T05:06:30;97755.59;;;10.47;56.98
49729;BME280;66333;49.798;10.968;2023-11-19T05:08:59;97751.81;;;10.50;56.80
49729;BME280;66333;49.798;10.968;2023-11-19T05:11:26;97757.22;;;10.48;56.96
49729;BME280;66333;49.798;10.968;2023-11-19T05:13:53;97752.31;;;10.45;56.94
49729;BME280;66333;49.798;10.968;2023-11-19T05:16:19;97749.88;;;10.43;57.22
49729;BME280;66333;49.798;10.968;2023-11-19T05:18:47;97746.75;;;10.40;57.16
49729;BME280;66333;49.798;10.968;2023-11-19T05:21:15;97755.44;;;10.40;57.24
49729;BME280;66333;49.798;10.968;2023-11-19T05:23:42;97742.16;;;10.42;57.32
49729;BME280;66333;49.798;10.968;2023-11-19T05:26:09;97739.88;;;10.47;57.17
49729;BME280;66333;49.798;10.968;2023-11-19T05:28:37;97738.25;;;10.46;57.10
49729;BME280;66333;49.798;10.968;2023-11-19T05:31:05;97742.50;;;10.47;57.19
49729;BME280;66333;49.798;10.968;2023-11-19T05:33:32;97757.88;;;10.42;57.29
49729;BME280;66333;49.798;10.968;2023-11-19T05:35:58;97751.81;;;10.41;57.29
49729;BME280;66333;49.798;10.968;2023-11-19T05:38:26;97752.63;;;10.42;57.32
49729;BME280;66333;49.798;10.968;2023-11-19T05:40:54;97745.28;;;10.45;57.20
49729;BME280;66333;49.798;10.968;2023-11-19T05:43:20;97744.78;;;10.50;57.12
49729;BME280;66333;49.798;10.968;2023-11-19T05:45:47;97741.50;;;10.48;57.14
49729;BME280;66333;49.798;10.968;2023-11-19T05:48:14;97739.06;;;10.47;57.25
49729;BME280;66333;49.798;10.968;2023-11-19T05:50:40;97734.00;;;10.45;57.34
49729;BME280;66333;49.798;10.968;2023-11-19T05:53:08;97730.56;;;10.44;57.30
49729;BME280;66333;49.798;10.968;2023-11-19T05:55:36;97715.31;;;10.48;57.25
49729;BME280;66333;49.798;10.968;2023-11-19T05:58:10;97724.50;;;10.44;57.17
49729;BME280;66333;49.798;10.968;2023-11-19T06:00:37;97726.78;;;10.39;57.43
49729;BME280;66333;49.798;10.968;2023-11-19T06:03:03;97725.78;;;10.48;57.30
49729;BME280;66333;49.798;10.968;2023-11-19T06:05:30;97736.28;;;10.48;57.26
49729;BME280;66333;49.798;10.968;2023-11-19T06:07:58;97740.34;;;10.51;57.28
49729;BME280;66333;49.798;10.968;2023-11-19T06:10:24;97743.16;;;10.49;57.07
49729;BME280;66333;49.798;10.968;2023-11-19T06:12:57;97743.50;;;10.46;57.30
49729;BME280;66333;49.798;10.968;2023-11-19T06:15:25;97742.50;;;10.47;57.29
49729;BME280;66333;49.798;10.968;2023-11-19T06:17:51;97749.53;;;10.47;57.36
49729;BME280;66333;49.798;10.968;2023-11-19T06:20:19;97745.47;;;10.44;57.51
49729;BME280;66333;49.798;10.968;2023-11-19T06:22:46;97747.91;;;10.45;57.44
49729;BME280;66333;49.798;10.968;2023-11-19T06:25:14;97738.59;;;10.43;57.42
49729;BME280;66333;49.798;10.968;2023-11-19T06:27:41;97736.63;;;10.45;57.44
49729;BME280;66333;49.798;10.968;2023-11-19T06:30:11;97736.63;;;10.45;57.52
49729;BME280;66333;49.798;10.968;2023-11-19T06:32:38;97745.47;;;10.44;57.49
49729;BME280;66333;49.798;10.968;2023-11-19T06:35:05;97731.38;;;10.45;57.44
49729;BME280;66333;49.798;10.968;2023-11-19T06:37:33;97732.53;;;10.42;57.56
49729;BME280;66333;49.798;10.968;2023-11-19T06:39:59;97731.38;;;10.45;57.51
49729;BME280;66333;49.798;10.968;2023-11-19T06:42:26;97731.03;;;10.48;57.45
49729;BME280;66333;49.798;10.968;2023-11-19T06:44:52;97722.19;;;10.49;57.49
49729;BME280;66333;49.798;10.968;2023-11-19T06:47:20;97723.50;;;10.53;57.31
49729;BME280;66333;49.798;10.968;2023-11-19T06:49:47;97730.72;;;10.51;57.46
49729;BME280;66333;49.798;10.968;2023-11-19T06:52:13;97722.69;;;10.53;57.43
49729;BME280;66333;49.798;10.968;2023-11-19T06:54:43;97726.13;;;10.53;57.23
49729;BME280;66333;49.798;10.968;2023-11-19T06:57:10;97728.09;;;10.51;57.48
49729;BME280;66333;49.798;10.968;2023-11-19T06:59:37;97728.09;;;10.51;57.35
49729;BME280;66333;49.798;10.968;2023-11-19T07:02:04;97723.19;;;10.48;57.45
49729;BME280;66333;49.798;10.968;2023-11-19T07:04:32;97728.41;;;10.48;57.50
49729;BME280;66333;49.798;10.968;2023-11-19T07:06:59;97732.66;;;10.49;57.52
49729;BME280;66333;49.798;10.968;2023-11-19T07:09:25;97731.53;;;10.52;57.44
49729;BME280;66333;49.798;10.968;2023-11-19T07:11:53;97727.13;;;10.52;57.52
49729;BME280;66333;49.798;10.968;2023-11-19T07:14:19;97725.47;;;10.51;57.59
49729;BME280;66333;49.798;10.968;2023-11-19T07:16:46;97722.69;;;10.53;57.47
49729;BME280;66333;49.798;10.968;2023-11-19T07:19:12;97737.09;;;10.49;57.41
49729;BME280;66333;49.798;10.968;2023-11-19T07:21:42;97740.34;;;10.51;57.52
49729;BME280;66333;49.798;10.968;2023-11-19T07:24:10;97735.63;;;10.54;57.45
49729;BME280;66333;49.798;10.968;2023-11-19T07:26:41;97737.09;;;10.49;57.49
49729;BME280;66333;49.798;10.968;2023-11-19T07:29:08;97735.28;;;10.49;57.68
49729;BME280;66333;49.798;10.968;2023-11-19T07:31:34;97740.03;;;10.54;57.59
49729;BME280;66333;49.798;10.968;2023-11-19T07:34:02;97746.09;;;10.54;57.48
49729;BME280;66333;49.798;10.968;2023-11-19T07:36:28;97736.91;;;10.58;57.34
49729;BME280;66333;49.798;10.968;2023-11-19T07:38:57;97742.66;;;10.62;57.33
49729;BME280;66333;49.798;10.968;2023-11-19T07:41:24;97744.13;;;10.56;57.39
49729;BME280;66333;49.798;10.968;2023-11-19T07:43:51;97753.63;;;10.57;57.25
49729;BME280;66333;49.798;10.968;2023-11-19T07:46:18;97757.22;;;10.56;57.55
49729;BME280;66333;49.798;10.968;2023-11-19T07:48:45;97758.56;;;10.60;57.40
49729;BME280;66333;49.798;10.968;2023-11-19T07:51:13;97757.56;;;10.61;57.35
49729;BME280;66333;49.798;10.968;2023-11-19T07:53:42;97769.69;;;10.62;57.31
49729;BME280;66333;49.798;10.968;2023-11-19T07:56:10;97760.84;;;10.63;57.41
49729;BME280;66333;49.798;10.968;2023-11-19T07:58:37;97762.78;;;10.69;57.18
49729;BME280;66333;49.798;10.968;2023-11-19T08:01:04;97762.47;;;10.64;57.26
49729;BME280;66333;49.798;10.968;2023-11-19T08:03:31;97749.69;;;10.69;57.29
49729;BME280;66333;49.798;10.968;2023-11-19T08:05:59;97745.13;;;10.63;57.42
49729;BME280;66333;49.798;10.968;2023-11-19T08:08:26;97756.88;;;10.59;57.50
49729;BME280;66333;49.798;10.968;2023-11-19T08:10:54;97752.63;;;10.58;57.53
49729;BME280;66333;49.798;10.968;2023-11-19T08:13:23;97758.38;;;10.62;57.46
49729;BME280;66333;49.798;10.968;2023-11-19T08:15:49;97751.34;;;10.62;57.54
49729;BME280;66333;49.798;10.968;2023-11-19T08:18:17;97760.00;;;10.63;57.53
49729;BME280;66333;49.798;10.968;2023-11-19T08:20:44;97764.25;;;10.64;57.71
49729;BME280;66333;49.798;10.968;2023-11-19T08:23:11;97766.72;;;10.65;57.36
49729;BME280;66333;49.798;10.968;2023-11-19T08:25:38;97759.03;;;10.72;57.32
49729;BME280;66333;49.798;10.968;2023-11-19T08:28:05;97751.00;;;10.73;57.56
49729;BME280;66333;49.798;10.968;2023-11-19T08:30:32;97754.94;;;10.69;57.52
49729;BME280;66333;49.798;10.968;2023-11-19T08:32:59;97751.00;;;10.73;57.34
49729;BME280;66333;49.798;10.968;2023-11-19T08:35:28;97756.88;;;10.67;57.39
49729;BME280;66333;49.798;10.968;2023-11-19T08:37:55;97758.84;;;10.65;57.57
49729;BME280;66333;49.798;10.968;2023-11-19T08:40:22;97764.09;;;10.65;57.57
49729;BME280;66333;49.798;10.968;2023-11-19T08:42:49;97753.31;;;10.68;57.46
49729;BME280;66333;49.798;10.968;2023-11-19T08:45:15;97753.13;;;10.62;57.76
49729;BME280;66333;49.798;10.968;2023-11-19T08:47:43;97747.38;;;10.66;57.68
49729;BME280;66333;49.798;10.968;2023-11-19T08:50:10;97756.88;;;10.67;57.54
49729;BME280;66333;49.798;10.968;2023-11-19T08:52:37;97751.97;;;10.64;57.73
49729;BME280;66333;49.798;10.968;2023-11-19T08:55:05;97751.97;;;10.64;57.78
49729;BME280;66333;49.798;10.968;2023-11-19T08:57:31;97757.56;;;10.61;57.81
49729;BME280;66333;49.798;10.968;2023-11-19T08:59:57;97764.09;;;10.65;58.13
49729;BME280;66333;49.798;10.968;2023-11-19T09:02:24;97759.50;;;10.67;57.83
49729;BME280;66333;49.798;10.968;2023-11-19T09:04:52;97755.25;;;10.66;57.85
49729;BME280;66333;49.798;10.968;2023-11-19T09:07:18;97751.34;;;10.70;57.66
49729;BME280;66333;49.798;10.968;2023-11-19T09:09:45;97758.38;;;10.70;57.59
49729;BME280;66333;49.798;10.968;2023-11-19T09:12:11;97759.19;;;10.70;57.68
49729;BME280;66333;49.798;10.968;2023-11-19T09:14:39;97768.03;;;10.69;57.85
49729;BME280;66333;49.798;10.968;2023-11-19T09:17:05;97766.88;;;10.72;57.72
49729;BME280;66333;49.798;10.968;2023-11-19T09:19:32;97765.25;;;10.79;57.36
49729;BME280;66333;49.798;10.968;2023-11-19T09:22:00;97769.97;;;10.76;57.48
49729;BME280;66333;49.798;10.968;2023-11-19T09:24:28;97778.66;;;10.84;57.23
49729;BME280;66333;49.798;10.968;2023-11-19T09:26:59;97781.13;;;10.86;57.17
49729;BME280;66333;49.798;10.968;2023-11-19T09:29:25;97775.22;;;10.84;57.29
49729;BME280;66333;49.798;10.968;2023-11-19T09:31:53;97778.50;;;10.86;57.28
49729;BME280;66333;49.798;10.968;2023-11-19T09:34:19;97777.84;;;10.84;57.34
49729;BME280;66333;49.798;10.968;2023-11-19T09:36:47;97778.16;;;10.97;57.51
49729;BME280;66333;49.798;10.968;2023-11-19T09:39:15;97791.56;;;11.02;57.48
49729;BME280;66333;49.798;10.968;2023-11-19T09:41:43;97783.22;;;11.07;57.20
49729;BME280;66333;49.798;10.968;2023-11-19T09:44:11;97789.28;;;11.07;57.32
49729;BME280;66333;49.798;10.968;2023-11-19T09:46:38;97778.63;;;11.00;57.57
49729;BME280;66333;49.798;10.968;2023-11-19T09:49:05;97777.00;;;10.99;57.73
49729;BME280;66333;49.798;10.968;2023-11-19T09:51:34;97771.09;;;11.06;57.41
49729;BME280;66333;49.798;10.968;2023-11-19T09:54:01;97770.94;;;10.99;57.59
49729;BME280;66333;49.798;10.968;2023-11-19T09:56:29;97764.53;;;11.01;57.61
49729;BME280;66333;49.798;10.968;2023-11-19T09:58:56;97753.22;;;11.01;57.61
49729;BME280;66333;49.798;10.968;2023-11-19T10:01:22;97745.06;;;10.96;57.67
49729;BME280;66333;49.798;10.968;2023-11-19T10:03:50;97747.03;;;10.94;57.68
49729;BME280;66333;49.798;10.968;2023-11-19T10:06:22;97736.22;;;10.97;57.65
49729;BME280;66333;49.798;10.968;2023-11-19T10:08:52;97736.84;;;10.99;57.63
49729;BME280;66333;49.798;10.968;2023-11-19T10:11:18;97740.28;;;10.99;57.66
49729;BME280;66333;49.798;10.968;2023-11-19T10:13:46;97739.13;;;11.02;57.47
49729;BME280;66333;49.798;10.968;2023-11-19T10:16:14;97734.56;;;11.04;57.42
49729;BME280;66333;49.798;10.968;2023-11-19T10:18:43;97738.31;;;11.01;57.49
49729;BME280;66333;49.798;10.968;2023-11-19T10:21:12;97733.88;;;11.02;57.62
49729;BME280;66333;49.798;10.968;2023-11-19T10:23:48;97749.97;;;10.99;57.50
49729;BME280;66333;49.798;10.968;2023-11-19T10:26:15;97749.97;;;10.99;57.60
49729;BME280;66333;49.798;10.968;2023-11-19T10:28:43;97744.38;;;11.02;57.60
49729;BME280;66333;49.798;10.968;2023-11-19T10:31:12;97747.66;;;11.04;57.55
49729;BME280;66333;49.798;10.968;2023-11-19T10:33:39;97730.59;;;11.08;57.36
49729;BME280;66333;49.798;10.968;2023-11-19T10:36:06;97726.69;;;11.04;57.51
49729;BME280;66333;49.798;10.968;2023-11-19T10:38:33;97717.84;;;11.05;57.34
49729;BME280;66333;49.798;10.968;2023-11-19T10:40:59;97728.63;;;11.02;57.62
49729;BME280;66333;49.798;10.968;2023-11-19T10:43:26;97733.88;;;11.02;57.60
49729;BME280;66333;49.798;10.968;2023-11-19T10:45:53;97725.34;;;11.08;57.49
49729;BME280;66333;49.798;10.968;2023-11-19T10:48:23;97721.09;;;11.07;57.37
49729;BME280;66333;49.798;10.968;2023-11-19T10:50:53;97719.94;;;11.10;57.51
49729;BME280;66333;49.798;10.968;2023-11-19T10:53:20;97718.66;;;11.06;57.66
49729;BME280;66333;49.798;10.968;2023-11-19T10:55:51;97710.97;;;11.04;57.71
49729;BME280;66333;49.798;10.968;2023-11-19T10:58:21;97714.56;;;11.03;57.65
49729;BME280;66333;49.798;10.968;2023-11-19T11:00:51;97714.56;;;11.03;57.92
49729;BME280;66333;49.798;10.968;2023-11-19T11:03:24;97710.97;;;11.04;57.71
49729;BME280;66333;49.798;10.968;2023-11-19T11:05:53;97707.66;;;11.02;57.96
49729;BME280;66333;49.798;10.968;2023-11-19T11:08:20;97704.59;;;10.98;58.16
49729;BME280;66333;49.798;10.968;2023-11-19T11:10:52;97699.78;;;11.10;57.68
49729;BME280;66333;49.798;10.968;2023-11-19T11:13:19;97703.56;;;11.08;57.80
49729;BME280;66333;49.798;10.968;2023-11-19T11:15:45;97710.25;;;11.10;57.74
49729;BME280;66333;49.798;10.968;2023-11-19T11:18:13;97710.25;;;11.10;57.90
49729;BME280;66333;49.798;10.968;2023-11-19T11:20:43;97713.56;;;11.12;57.70
49729;BME280;66333;49.798;10.968;2023-11-19T11:23:33;97713.56;;;11.12;57.79
49729;BME280;66333;49.798;10.968;2023-11-19T11:26:16;97715.84;;;11.15;57.66
49729;BME280;66333;49.798;10.968;2023-11-19T11:28:51;97717.16;;;11.11;57.84
49729;BME280;66333;49.798;10.968;2023-11-19T11:31:29;97716.81;;;11.14;57.81
49729;BME280;66333;49.798;10.968;2023-11-19T11:34:15;97715.50;;;11.10;57.88
49729;BME280;66333;49.798;10.968;2023-11-19T11:36:53;97712.56;;;11.13;57.81
49729;BME280;66333;49.798;10.968;2023-11-19T11:39:24;97706.34;;;11.14;58.03
49729;BME280;66333;49.798;10.968;2023-11-19T11:44:59;97699.09;;;11.16;57.83
49729;BME280;66333;49.798;10.968;2023-11-19T11:50:54;97702.38;;;11.18;57.95
49729;BME280;66333;49.798;10.968;2023-11-19T11:53:24;97693.84;;;11.24;57.73
49729;BME280;66333;49.798;10.968;2023-11-19T11:55:53;97699.72;;;11.26;57.65
49729;BME280;66333;49.798;10.968;2023-11-19T11:58:26;97702.84;;;11.30;57.70
49729;BME280;66333;49.798;10.968;2023-11-19T12:00:53;97692.53;;;11.28;57.63
49729;BME280;66333;49.798;10.968;2023-11-19T12:03:21;97697.09;;;11.26;57.80
49729;BME280;66333;49.798;10.968;2023-11-19T12:05:48;97692.84;;;11.25;57.88
49729;BME280;66333;49.798;10.968;2023-11-19T12:08:18;97694.81;;;11.23;57.89
49729;BME280;66333;49.798;10.968;2023-11-19T12:10:49;97696.81;;;11.21;58.04
49729;BME280;66333;49.798;10.968;2023-11-19T12:13:16;97696.47;;;11.24;58.09
49729;BME280;66333;49.798;10.968;2023-11-19T12:16:09;97701.06;;;11.22;58.30
49729;BME280;66333;49.798;10.968;2023-11-19T12:18:38;97702.72;;;11.15;58.42
49729;BME280;66333;49.798;10.968;2023-11-19T12:21:06;97702.06;;;11.21;58.43
49729;BME280;66333;49.798;10.968;2023-11-19T12:23:34;97697.44;;;11.23;58.30
49729;BME280;66333;49.798;10.968;2023-11-19T12:26:02;97679.91;;;11.24;58.24
49729;BME280;66333;49.798;10.968;2023-11-19T12:28:29;97680.72;;;11.24;58.29
49729;BME280;66333;49.798;10.968;2023-11-19T12:31:07;97677.47;;;11.22;58.28
49729;BME280;66333;49.798;10.968;2023-11-19T12:33:35;97670.59;;;11.21;58.44
49729;BME280;66333;49.798;10.968;2023-11-19T12:36:02;97680.72;;;11.24;58.29
49729;BME280;66333;49.798;10.968;2023-11-19T12:38:30;97689.22;;;11.26;58.29
49729;BME280;66333;49.798;10.968;2023-11-19T12:41:06;97686.97;;;11.23;58.42
49729;BME280;66333;49.798;10.968;2023-11-19T12:43:33;97660.69;;;11.32;58.11
49729;BME280;66333;49.798;10.968;2023-11-19T12:46:01;97669.06;;;11.27;58.24
49729;BME280;66333;49.798;10.968;2023-11-19T12:48:30;97674.66;;;11.24;58.37
49729;BME280;66333;49.798;10.968;2023-11-19T12:50:57;97677.75;;;11.27;58.49
49729;BME280;66333;49.798;10.968;2023-11-19T12:53:25;97669.88;;;11.27;58.44
49729;BME280;66333;49.798;10.968;2023-11-19T12:55:53;97667.25;;;11.27;58.36
49729;BME280;66333;49.798;10.968;2023-11-19T12:58:35;97667.13;;;11.29;58.50
49729;BME280;66333;49.798;10.968;2023-11-19T13:01:05;97676.13;;;11.26;58.54